createdAt,value
2024-05-09T00:00:18.179Z,100397.56
2024-05-09T00:00:39.180Z,100392.41
2024-05-09T00:00:52.765Z,100393.31
2024-05-09T00:01:04.968Z,100395.91
2024-05-09T00:01:17.197Z,100394.19
2024-05-09T00:01:29.349Z,100394.19
2024-05-09T00:01:41.447Z,100400.28
2024-05-09T00:01:53.547Z,100396.78
2024-05-09T00:02:05.634Z,100398.53
2024-05-09T00:02:17.763Z,100396.81
2024-05-09T00:02:29.975Z,100397.75
2024-05-09T00:02:42.452Z,100399.53
2024-05-09T00:02:54.614Z,100396.97
2024-05-09T00:03:10.870Z,100397.03
2024-05-09T00:03:23.988Z,100392.72
2024-05-09T00:03:36.172Z,100395.41
2024-05-09T00:03:48.359Z,100396.25
2024-05-09T00:04:00.503Z,100391.06
2024-05-09T00:04:12.662Z,100396.25
2024-05-09T00:04:24.793Z,100403.16
2024-05-09T00:04:36.894Z,100391.06
2024-05-09T00:04:49.054Z,100397.94
2024-05-09T00:05:01.371Z,100397.94
2024-05-09T00:05:13.834Z,100397.94
2024-05-09T00:05:26.049Z,100393.69
2024-05-09T00:05:38.720Z,100392.81
2024-05-09T00:05:51.073Z,100396.25
2024-05-09T00:06:03.431Z,100394.53
2024-05-09T00:06:15.676Z,100394.53
2024-05-09T00:06:27.796Z,100387.53
2024-05-09T00:06:40.118Z,100399.59
2024-05-09T00:06:52.171Z,100393.50
2024-05-09T00:07:04.333Z,100400.38
2024-05-09T00:07:16.393Z,100399.53
2024-05-09T00:07:28.501Z,100395.16
2024-05-09T00:07:40.613Z,100392.59
2024-05-09T00:07:52.691Z,100390.00
2024-05-09T00:08:05.375Z,100393.47
2024-05-09T00:08:17.597Z,100394.31
2024-05-09T00:08:29.842Z,100392.59
2024-05-09T00:08:42.028Z,100395.19
2024-05-09T00:08:54.112Z,100392.59
2024-05-09T00:09:06.367Z,100391.78
2024-05-09T00:09:18.391Z,100396.09
2024-05-09T00:09:30.436Z,100390.91
2024-05-09T00:09:42.487Z,100395.28
2024-05-09T00:09:54.566Z,100388.31
2024-05-09T00:10:09.210Z,100391.78
2024-05-09T00:10:32.642Z,100387.47
2024-05-09T00:10:48.096Z,100390.00
2024-05-09T00:11:00.431Z,100394.28
2024-05-09T00:11:15.553Z,100394.19
2024-05-09T00:11:27.734Z,100397.69
2024-05-09T00:11:40.330Z,100392.47
2024-05-09T00:11:52.483Z,100392.47
2024-05-09T00:12:04.819Z,100391.66
2024-05-09T00:12:17.121Z,100395.16
2024-05-09T00:12:29.253Z,100392.53
2024-05-09T00:12:41.351Z,100392.53
2024-05-09T00:12:53.377Z,100388.28
2024-05-09T00:13:09.381Z,100390.06
2024-05-09T00:13:21.803Z,100388.31
2024-05-09T00:13:33.853Z,100389.25
2024-05-09T00:13:47.128Z,100393.56
2024-05-09T00:13:59.279Z,100394.50
2024-05-09T00:14:11.507Z,100390.19
2024-05-09T00:14:23.877Z,100392.75
2024-05-09T00:14:36.075Z,100393.66
2024-05-09T00:14:48.199Z,100393.63
2024-05-09T00:15:00.343Z,100389.25
2024-05-09T00:15:12.460Z,100390.97
2024-05-09T00:15:24.539Z,100394.38
2024-05-09T00:15:37.050Z,100393.47
2024-05-09T00:15:49.308Z,100395.16
2024-05-09T00:16:01.355Z,100389.25
2024-05-09T00:16:13.486Z,100398.00
2024-05-09T00:16:25.599Z,100394.63
2024-05-09T00:16:37.652Z,100394.63
2024-05-09T00:16:49.761Z,100398.97
2024-05-09T00:17:01.890Z,100391.19
2024-05-09T00:17:14.232Z,100394.66
2024-05-09T00:17:26.484Z,100389.47
2024-05-09T00:17:38.871Z,100392.16
2024-05-09T00:17:51.303Z,100396.53
2024-05-09T00:18:05.326Z,100393.91
2024-05-09T00:18:18.278Z,100389.47
2024-05-09T00:18:30.637Z,100386.94
2024-05-09T00:18:42.831Z,100390.50
2024-05-09T00:18:55.387Z,100386.13
2024-05-09T00:19:07.657Z,100389.63
2024-05-09T00:19:20.156Z,100393.09
2024-05-09T00:19:32.441Z,100394.81
2024-05-09T00:19:45.492Z,100390.53
2024-05-09T00:19:57.539Z,100399.19
2024-05-09T00:20:17.458Z,100393.13
2024-05-09T00:20:37.988Z,100392.19
2024-05-09T00:20:52.726Z,100390.50
2024-05-09T00:21:09.492Z,100397.38
2024-05-09T00:21:21.762Z,100396.44
2024-05-09T00:21:33.828Z,100393.84
2024-05-09T00:21:45.898Z,100391.25
2024-05-09T00:21:57.975Z,100393.00
2024-05-09T00:22:12.470Z,100398.19
2024-05-09T00:22:24.513Z,100386.03
2024-05-09T00:22:36.620Z,100397.34
2024-05-09T00:22:48.814Z,100392.97
2024-05-09T00:23:01.069Z,100393.91
2024-05-09T00:23:14.182Z,100395.56
2024-05-09T00:23:26.407Z,100386.97
2024-05-09T00:23:38.596Z,100393.03
2024-05-09T00:23:50.688Z,100391.25
2024-05-09T00:24:02.800Z,100395.59
2024-05-09T00:24:14.857Z,100389.47
2024-05-09T00:24:26.917Z,100390.28
2024-05-09T00:24:38.950Z,100390.28
2024-05-09T00:24:50.998Z,100389.47
2024-05-09T00:25:03.211Z,100387.78
2024-05-09T00:25:15.262Z,100392.97
2024-05-09T00:25:27.316Z,100393.81
2024-05-09T00:25:39.562Z,100389.47
2024-05-09T00:25:51.657Z,100397.25
2024-05-09T00:26:03.992Z,100391.19
2024-05-09T00:26:19.085Z,100389.47
2024-05-09T00:26:31.225Z,100386.03
2024-05-09T00:26:43.387Z,100395.56
2024-05-09T00:26:55.499Z,100394.75
2024-05-09T00:27:08.411Z,100392.97
2024-05-09T00:27:21.064Z,100393.84
2024-05-09T00:27:33.102Z,100388.66
2024-05-09T00:27:45.128Z,100391.25
2024-05-09T00:27:57.157Z,100384.34
2024-05-09T00:28:09.428Z,100391.25
2024-05-09T00:28:21.542Z,100388.66
2024-05-09T00:28:33.577Z,100387.84
2024-05-09T00:28:45.735Z,100391.25
2024-05-09T00:28:57.876Z,100382.63
2024-05-09T00:29:10.000Z,100385.22
2024-05-09T00:29:22.251Z,100389.56
2024-05-09T00:29:34.440Z,100391.31
2024-05-09T00:29:46.576Z,100392.22
2024-05-09T00:29:58.613Z,100388.75
2024-05-09T00:30:17.436Z,100382.72
2024-05-09T00:30:37.618Z,100387.16
2024-05-09T00:30:49.790Z,100387.97
2024-05-09T00:31:02.971Z,100384.50
2024-05-09T00:31:15.038Z,100391.41
2024-05-09T00:31:27.157Z,100384.50
2024-05-09T00:31:39.219Z,100387.06
2024-05-09T00:31:51.336Z,100387.91
2024-05-09T00:32:03.851Z,100387.91
2024-05-09T00:32:16.246Z,100387.91
2024-05-09T00:32:28.463Z,100388.78
2024-05-09T00:32:40.761Z,100386.19
2024-05-09T00:32:53.100Z,100387.94
2024-05-09T00:33:06.716Z,100391.41
2024-05-09T00:33:20.260Z,100387.91
2024-05-09T00:33:32.579Z,100385.31
2024-05-09T00:33:44.770Z,100392.28
2024-05-09T00:33:57.015Z,100387.91
2024-05-09T00:34:09.306Z,100382.75
2024-05-09T00:34:21.636Z,100385.31
2024-05-09T00:34:33.766Z,100391.41
2024-05-09T00:34:45.999Z,100382.75
2024-05-09T00:34:58.169Z,100391.41
2024-05-09T00:35:10.377Z,100386.28
2024-05-09T00:35:22.615Z,100387.97
2024-05-09T00:35:35.189Z,100387.97
2024-05-09T00:35:47.460Z,100387.09
2024-05-09T00:35:59.506Z,100388.88
2024-05-09T00:36:11.560Z,100383.66
2024-05-09T00:36:23.607Z,100387.97
2024-05-09T00:36:35.680Z,100381.06
2024-05-09T00:36:47.728Z,100390.56
2024-05-09T00:36:59.799Z,100388.84
2024-05-09T00:37:11.891Z,100385.38
2024-05-09T00:37:23.990Z,100385.41
2024-05-09T00:37:36.046Z,100384.63
2024-05-09T00:37:48.198Z,100391.53
2024-05-09T00:38:00.648Z,100382.84
2024-05-09T00:38:13.123Z,100381.13
2024-05-09T00:38:25.229Z,100378.56
2024-05-09T00:38:37.424Z,100387.19
2024-05-09T00:38:49.498Z,100396.69
2024-05-09T00:39:01.626Z,100386.28
2024-05-09T00:39:13.744Z,100384.53
2024-05-09T00:39:25.849Z,100389.72
2024-05-09T00:39:37.955Z,100384.53
2024-05-09T00:39:49.988Z,100384.56
2024-05-09T00:40:02.142Z,100386.28
2024-05-09T00:40:22.454Z,100379.34
2024-05-09T00:40:43.636Z,100382.91
2024-05-09T00:40:56.007Z,100387.31
2024-05-09T00:41:08.133Z,100386.47
2024-05-09T00:41:20.253Z,100377.03
2024-05-09T00:41:32.345Z,100385.63
2024-05-09T00:41:44.500Z,100389.97
2024-05-09T00:41:56.603Z,100384.78
2024-05-09T00:42:08.663Z,100389.97
2024-05-09T00:42:20.729Z,100391.66
2024-05-09T00:42:37.702Z,100379.63
2024-05-09T00:42:49.748Z,100387.47
2024-05-09T00:43:01.818Z,100385.72
2024-05-09T00:43:15.454Z,100382.25
2024-05-09T00:43:27.632Z,100381.34
2024-05-09T00:43:40.327Z,100388.25
2024-05-09T00:43:52.421Z,100386.56
2024-05-09T00:44:04.663Z,100388.34
2024-05-09T00:44:16.859Z,100384.81
2024-05-09T00:44:28.989Z,100388.34
2024-05-09T00:44:41.195Z,100388.28
2024-05-09T00:44:53.252Z,100382.19
2024-05-09T00:45:06.783Z,100385.75
2024-05-09T00:45:18.898Z,100390.13
2024-05-09T00:45:30.945Z,100383.19
2024-05-09T00:45:44.000Z,100383.19
2024-05-09T00:45:57.387Z,100384.97
2024-05-09T00:46:09.978Z,100383.19
2024-05-09T00:46:22.074Z,100382.38
2024-05-09T00:46:34.435Z,100387.59
2024-05-09T00:46:46.512Z,100380.69
2024-05-09T00:46:59.443Z,100385.88
2024-05-09T00:47:12.221Z,100381.53
2024-05-09T00:47:24.830Z,100389.34
2024-05-09T00:47:37.174Z,100384.16
2024-05-09T00:47:49.638Z,100387.66
2024-05-09T00:48:06.761Z,100386.81
2024-05-09T00:48:21.484Z,100389.38
2024-05-09T00:48:34.943Z,100386.81
2024-05-09T00:48:47.401Z,100385.09
2024-05-09T00:48:59.744Z,100387.59
2024-05-09T00:49:12.860Z,100385.91
2024-05-09T00:49:26.132Z,100385.03
2024-05-09T00:49:38.559Z,100390.25
2024-05-09T00:49:51.245Z,100391.09
2024-05-09T00:50:05.529Z,100385.00
2024-05-09T00:50:29.339Z,100388.47
2024-05-09T00:50:46.741Z,100387.59
2024-05-09T00:50:59.445Z,100393.66
2024-05-09T00:51:11.691Z,100389.31
2024-05-09T00:51:23.909Z,100387.59
2024-05-09T00:51:36.202Z,100383.28
2024-05-09T00:51:48.812Z,100395.44
2024-05-09T00:52:02.172Z,100389.44
2024-05-09T00:52:14.207Z,100398.94
2024-05-09T00:52:27.629Z,100389.34
2024-05-09T00:52:40.507Z,100389.44
2024-05-09T00:52:52.701Z,100386.81
2024-05-09T00:53:09.952Z,100392.94
2024-05-09T00:53:22.160Z,100386.88
2024-05-09T00:53:34.447Z,100398.22
2024-05-09T00:53:47.743Z,100398.22
2024-05-09T00:53:59.972Z,100394.81
2024-05-09T00:54:12.268Z,100393.91
2024-05-09T00:54:25.050Z,100396.56
2024-05-09T00:54:37.116Z,100392.22
2024-05-09T00:54:49.215Z,100390.47
2024-05-09T00:55:01.461Z,100392.22
2024-05-09T00:55:15.597Z,100393.09
2024-05-09T00:55:28.111Z,100393.13
2024-05-09T00:55:40.855Z,100397.47
2024-05-09T00:55:55.865Z,100393.19
2024-05-09T00:56:10.558Z,100388.00
2024-05-09T00:56:22.796Z,100395.88
2024-05-09T00:56:35.565Z,100392.38
2024-05-09T00:56:49.481Z,100393.22
2024-05-09T00:57:03.568Z,100397.59
2024-05-09T00:57:17.207Z,100395.03
2024-05-09T00:57:29.314Z,100398.47
2024-05-09T00:57:42.147Z,100391.50
2024-05-09T00:57:54.698Z,100391.44
2024-05-09T00:58:09.111Z,100397.53
2024-05-09T00:58:24.329Z,100401.00
2024-05-09T00:58:36.719Z,100400.97
2024-05-09T00:58:50.161Z,100388.81
2024-05-09T00:59:02.869Z,100395.75
2024-05-09T00:59:15.797Z,100395.69
2024-05-09T00:59:30.114Z,100394.84
2024-05-09T00:59:42.300Z,100393.19
2024-05-09T00:59:55.474Z,100395.78
2024-05-09T01:00:22.384Z,100398.38
2024-05-09T01:00:43.304Z,100390.63
2024-05-09T01:00:57.686Z,100400.16
2024-05-09T01:01:10.566Z,100398.41
2024-05-09T01:01:24.706Z,100390.63
2024-05-09T01:01:37.115Z,100394.94
2024-05-09T01:01:49.595Z,100392.34
2024-05-09T01:02:01.934Z,100394.97
2024-05-09T01:02:15.940Z,100396.63
2024-05-09T01:02:30.881Z,100398.38
2024-05-09T01:02:43.221Z,100398.41
2024-05-09T01:02:55.507Z,100397.59
2024-05-09T01:03:09.023Z,100390.69
2024-05-09T01:03:23.123Z,100401.09
2024-05-09T01:03:35.559Z,100396.84
2024-05-09T01:03:51.300Z,100395.13
2024-05-09T01:04:03.766Z,100390.81
2024-05-09T01:04:16.959Z,100394.25
2024-05-09T01:04:29.032Z,100401.13
2024-05-09T01:04:41.296Z,100396.84
2024-05-09T01:04:53.526Z,100398.59
2024-05-09T01:05:06.263Z,100397.72
2024-05-09T01:05:18.416Z,100401.22
2024-05-09T01:05:32.060Z,100396.94
2024-05-09T01:05:44.943Z,100403.00
2024-05-09T01:05:57.058Z,100401.22
2024-05-09T01:06:09.128Z,100396.88
2024-05-09T01:06:21.589Z,100398.59
2024-05-09T01:06:33.657Z,100402.06
2024-05-09T01:06:45.805Z,100403.84
2024-05-09T01:06:57.879Z,100399.56
2024-05-09T01:07:11.116Z,100396.06
2024-05-09T01:07:24.176Z,100399.56
2024-05-09T01:07:36.223Z,100397.84
2024-05-09T01:07:48.380Z,100397.84
2024-05-09T01:08:00.622Z,100394.41
2024-05-09T01:08:13.332Z,100399.69
2024-05-09T01:08:26.265Z,100390.97
2024-05-09T01:08:38.644Z,100400.47
2024-05-09T01:08:51.053Z,100397.03
2024-05-09T01:09:03.524Z,100397.03
2024-05-09T01:09:15.650Z,100394.50
2024-05-09T01:09:27.741Z,100395.41
2024-05-09T01:09:39.825Z,100391.06
2024-05-09T01:09:51.870Z,100392.78
2024-05-09T01:10:05.538Z,100396.19
2024-05-09T01:10:27.563Z,100393.59
2024-05-09T01:10:46.124Z,100396.19
2024-05-09T01:11:00.243Z,100391.84
2024-05-09T01:11:12.519Z,100392.72
2024-05-09T01:11:24.736Z,100400.53
2024-05-09T01:11:38.712Z,100391.94
2024-05-09T01:11:51.009Z,100391.00
2024-05-09T01:12:03.623Z,100392.78
2024-05-09T01:12:15.845Z,100397.03
2024-05-09T01:12:28.110Z,100392.72
2024-05-09T01:12:40.353Z,100394.41
2024-05-09T01:12:52.575Z,100392.78
2024-05-09T01:13:05.691Z,100397.97
2024-05-09T01:13:17.988Z,100392.78
2024-05-09T01:13:30.064Z,100392.78
2024-05-09T01:13:42.114Z,100392.84
2024-05-09T01:13:54.230Z,100392.84
2024-05-09T01:14:06.336Z,100394.63
2024-05-09T01:14:18.563Z,100393.75
2024-05-09T01:14:30.695Z,100393.69
2024-05-09T01:14:42.772Z,100397.16
2024-05-09T01:14:54.807Z,100392.03
2024-05-09T01:15:06.957Z,100398.94
2024-05-09T01:15:19.004Z,100399.75
2024-05-09T01:15:31.138Z,100395.47
2024-05-09T01:15:43.449Z,100392.91
2024-05-09T01:15:55.666Z,100403.28
2024-05-09T01:16:07.852Z,100396.41
2024-05-09T01:16:19.918Z,100397.25
2024-05-09T01:16:32.589Z,100397.22
2024-05-09T01:16:44.930Z,100401.50
2024-05-09T01:16:57.114Z,100401.50
2024-05-09T01:17:09.264Z,100400.66
2024-05-09T01:17:21.517Z,100395.50
2024-05-09T01:17:34.325Z,100396.41
2024-05-09T01:17:46.860Z,100396.41
2024-05-09T01:18:03.255Z,100398.09
2024-05-09T01:18:15.985Z,100396.34
2024-05-09T01:18:28.724Z,100392.91
2024-05-09T01:18:41.024Z,100397.22
2024-05-09T01:18:53.364Z,100399.81
2024-05-09T01:19:13.838Z,100397.22
2024-05-09T01:19:29.282Z,100403.25
2024-05-09T01:19:42.104Z,100394.53
2024-05-09T01:19:54.258Z,100389.44
2024-05-09T01:20:10.649Z,100393.69
2024-05-09T01:20:36.548Z,100391.06
2024-05-09T01:20:53.571Z,100392.78
2024-05-09T01:21:08.282Z,100394.50
2024-05-09T01:21:20.401Z,100385.88
2024-05-09T01:21:32.505Z,100387.56
2024-05-09T01:21:44.630Z,100391.09
2024-05-09T01:21:56.736Z,100389.34
2024-05-09T01:22:08.846Z,100392.84
2024-05-09T01:22:22.751Z,100385.06
2024-05-09T01:22:38.100Z,100384.28
2024-05-09T01:22:52.349Z,100394.66
2024-05-09T01:23:07.664Z,100392.09
2024-05-09T01:23:19.898Z,100387.78
2024-05-09T01:23:32.160Z,100389.56
2024-05-09T01:23:44.378Z,100391.25
2024-05-09T01:23:56.437Z,100380.00
2024-05-09T01:24:08.487Z,100382.59
2024-05-09T01:24:20.568Z,100389.56
2024-05-09T01:24:35.638Z,100384.38
2024-05-09T01:24:47.811Z,100389.63
2024-05-09T01:24:59.866Z,100386.13
2024-05-09T01:25:11.921Z,100384.38
2024-05-09T01:25:23.982Z,100383.50
2024-05-09T01:25:36.055Z,100383.53
2024-05-09T01:25:48.266Z,100386.13
2024-05-09T01:26:00.408Z,100393.97
2024-05-09T01:26:12.668Z,100391.38
2024-05-09T01:26:24.758Z,100382.72
2024-05-09T01:26:37.009Z,100384.44
2024-05-09T01:26:49.316Z,100387.88
2024-05-09T01:27:01.406Z,100388.75
2024-05-09T01:27:13.462Z,100391.34
2024-05-09T01:27:25.538Z,100393.06
2024-05-09T01:27:37.769Z,100391.28
2024-05-09T01:27:49.835Z,100393.06
2024-05-09T01:28:02.136Z,100390.38
2024-05-09T01:28:14.991Z,100393.91
2024-05-09T01:28:27.119Z,100395.66
2024-05-09T01:28:39.344Z,100391.34
2024-05-09T01:28:51.810Z,100389.56
2024-05-09T01:29:03.976Z,100387.88
2024-05-09T01:29:16.161Z,100391.31
2024-05-09T01:29:28.373Z,100390.38
2024-05-09T01:29:40.471Z,100384.38
2024-05-09T01:29:52.525Z,100393.00
2024-05-09T01:30:09.168Z,100387.81
2024-05-09T01:30:31.163Z,100388.75
2024-05-09T01:30:46.185Z,100387.91
2024-05-09T01:30:58.267Z,100393.97
2024-05-09T01:31:15.764Z,100386.19
2024-05-09T01:31:27.845Z,100387.91
2024-05-09T01:31:39.960Z,100385.28
2024-05-09T01:31:58.940Z,100387.88
2024-05-09T01:32:11.304Z,100387.88
2024-05-09T01:32:23.720Z,100395.59
2024-05-09T01:32:35.980Z,100387.88
2024-05-09T01:32:48.295Z,100389.56
2024-05-09T01:33:00.697Z,100388.69
2024-05-09T01:33:13.555Z,100393.00
2024-05-09T01:33:26.098Z,100390.38
2024-05-09T01:33:38.637Z,100393.88
2024-05-09T01:33:51.191Z,100381.75
2024-05-09T01:34:03.422Z,100386.94
2024-05-09T01:34:15.605Z,100387.81
2024-05-09T01:34:27.745Z,100390.38
2024-05-09T01:34:39.788Z,100391.25
2024-05-09T01:34:51.895Z,100388.66
2024-05-09T01:35:04.318Z,100386.03
2024-05-09T01:35:16.558Z,100388.69
2024-05-09T01:35:28.890Z,100394.75
2024-05-09T01:35:42.542Z,100387.03
2024-05-09T01:35:55.243Z,100378.38
2024-05-09T01:36:07.383Z,100387.06
2024-05-09T01:36:19.443Z,100386.19
2024-05-09T01:36:31.877Z,100387.06
2024-05-09T01:36:44.048Z,100383.59
2024-05-09T01:36:56.098Z,100394.88
2024-05-09T01:37:08.148Z,100395.81
2024-05-09T01:37:20.226Z,100389.69
2024-05-09T01:37:32.262Z,100393.16
2024-05-09T01:37:44.379Z,100388.03
2024-05-09T01:37:56.524Z,100391.50
2024-05-09T01:38:09.674Z,100396.69
2024-05-09T01:38:21.899Z,100397.56
2024-05-09T01:38:34.065Z,100393.22
2024-05-09T01:38:46.130Z,100392.41
2024-05-09T01:38:58.454Z,100390.66
2024-05-09T01:39:10.505Z,100393.28
2024-05-09T01:39:22.709Z,100398.47
2024-05-09T01:39:35.007Z,100395.81
2024-05-09T01:39:47.096Z,100389.72
2024-05-09T01:39:59.185Z,100392.38
2024-05-09T01:40:15.293Z,100396.69
2024-05-09T01:40:37.338Z,100394.91
2024-05-09T01:40:51.927Z,100393.22
2024-05-09T01:41:04.508Z,100391.56
2024-05-09T01:41:16.615Z,100392.41
2024-05-09T01:41:28.803Z,100395.88
2024-05-09T01:41:40.883Z,100393.28
2024-05-09T01:41:52.969Z,100396.69
2024-05-09T01:42:05.495Z,100392.38
2024-05-09T01:42:17.590Z,100393.22
2024-05-09T01:42:29.641Z,100395.84
2024-05-09T01:42:41.779Z,100389.81
2024-05-09T01:42:53.901Z,100391.50
2024-05-09T01:43:06.540Z,100395.00
2024-05-09T01:43:18.682Z,100396.78
2024-05-09T01:43:30.728Z,100386.38
2024-05-09T01:43:42.897Z,100398.47
2024-05-09T01:43:55.092Z,100396.69
2024-05-09T01:44:07.207Z,100390.66
2024-05-09T01:44:19.326Z,100395.84
2024-05-09T01:44:31.430Z,100394.16
2024-05-09T01:44:43.639Z,100394.16
2024-05-09T01:44:58.365Z,100394.16
2024-05-09T01:45:11.167Z,100389.84
2024-05-09T01:45:23.227Z,100394.16
2024-05-09T01:45:35.298Z,100395.03
2024-05-09T01:45:47.410Z,100388.16
2024-05-09T01:45:59.488Z,100391.56
2024-05-09T01:46:19.320Z,100385.47
2024-05-09T01:46:31.403Z,100382.03
2024-05-09T01:46:43.478Z,100388.94
2024-05-09T01:46:55.605Z,100391.63
2024-05-09T01:47:07.721Z,100389.84
2024-05-09T01:47:19.924Z,100391.69
2024-05-09T01:47:32.196Z,100388.25
2024-05-09T01:47:44.530Z,100386.50
2024-05-09T01:47:56.836Z,100389.13
2024-05-09T01:48:10.448Z,100388.25
2024-05-09T01:48:23.409Z,100389.97
2024-05-09T01:48:35.674Z,100388.25
2024-05-09T01:48:47.811Z,100389.13
2024-05-09T01:49:00.670Z,100389.97
2024-05-09T01:49:12.971Z,100390.91
2024-05-09T01:49:25.343Z,100388.28
2024-05-09T01:49:37.655Z,100392.63
2024-05-09T01:49:49.913Z,100390.00
2024-05-09T01:50:02.317Z,100392.63
2024-05-09T01:50:37.747Z,100389.09
2024-05-09T01:50:53.188Z,100388.19
2024-05-09T01:51:05.400Z,100389.97
2024-05-09T01:51:17.536Z,100389.09
2024-05-09T01:51:29.656Z,100388.19
2024-05-09T01:51:41.734Z,100386.50
2024-05-09T01:51:53.779Z,100383.00
2024-05-09T01:52:05.830Z,100395.16
2024-05-09T01:52:17.875Z,100390.78
2024-05-09T01:52:29.974Z,100384.72
2024-05-09T01:52:42.028Z,100386.50
2024-05-09T01:52:54.122Z,100386.50
2024-05-09T01:53:06.267Z,100388.25
2024-05-09T01:53:18.406Z,100386.50
2024-05-09T01:53:30.593Z,100389.91
2024-05-09T01:53:43.972Z,100383.81
2024-05-09T01:53:56.143Z,100387.31
2024-05-09T01:54:08.225Z,100387.25
2024-05-09T01:54:20.283Z,100386.38
2024-05-09T01:54:32.331Z,100385.56
2024-05-09T01:54:44.407Z,100383.00
2024-05-09T01:54:56.467Z,100382.13
2024-05-09T01:55:08.564Z,100380.41
2024-05-09T01:55:20.696Z,100381.31
2024-05-09T01:55:32.748Z,100386.53
2024-05-09T01:55:44.956Z,100382.25
2024-05-09T01:55:57.115Z,100381.41
2024-05-09T01:56:09.916Z,100383.13
2024-05-09T01:56:22.124Z,100377.91
2024-05-09T01:56:34.328Z,100384.84
2024-05-09T01:56:46.416Z,100388.28
2024-05-09T01:56:58.462Z,100383.06
2024-05-09T01:57:10.521Z,100384.81
2024-05-09T01:57:22.667Z,100386.53
2024-05-09T01:57:34.763Z,100385.66
2024-05-09T01:57:46.802Z,100384.75
2024-05-09T01:57:58.842Z,100384.75
2024-05-09T01:58:10.928Z,100384.75
2024-05-09T01:58:22.995Z,100388.25
2024-05-09T01:58:35.058Z,100384.00
2024-05-09T01:58:47.156Z,100384.84
2024-05-09T01:58:59.469Z,100376.22
2024-05-09T01:59:11.595Z,100384.84
2024-05-09T01:59:23.769Z,100384.84
2024-05-09T01:59:35.873Z,100380.50
2024-05-09T01:59:47.987Z,100378.81
2024-05-09T02:00:01.445Z,100380.59
2024-05-09T02:00:18.824Z,100383.19
2024-05-09T02:00:42.090Z,100384.94
2024-05-09T02:00:55.336Z,100385.81
2024-05-09T02:01:07.470Z,100385.00
2024-05-09T02:01:19.660Z,100385.06
2024-05-09T02:01:55.290Z,100385.06
2024-05-09T02:02:04.232Z,100386.78
2024-05-09T02:02:16.698Z,100386.75
2024-05-09T02:02:28.937Z,100383.34
2024-05-09T02:02:41.100Z,100390.25
2024-05-09T02:02:53.958Z,100382.50
2024-05-09T02:03:10.053Z,100385.00
2024-05-09T02:03:23.112Z,100391.97
2024-05-09T02:03:35.407Z,100388.50
2024-05-09T02:03:47.983Z,100388.50
2024-05-09T02:04:00.340Z,100385.84
2024-05-09T02:04:12.806Z,100384.16
2024-05-09T02:04:25.117Z,100390.19
2024-05-09T02:04:37.363Z,100385.84
2024-05-09T02:04:50.060Z,100385.00
2024-05-09T02:05:02.392Z,100388.50
2024-05-09T02:05:14.698Z,100383.31
2024-05-09T02:05:26.906Z,100389.34
2024-05-09T02:05:39.219Z,100385.00
2024-05-09T02:05:51.469Z,100382.38
2024-05-09T02:06:03.896Z,100383.25
2024-05-09T02:06:16.064Z,100383.25
2024-05-09T02:06:28.133Z,100387.56
2024-05-09T02:06:41.588Z,100378.97
2024-05-09T02:06:53.626Z,100379.81
2024-05-09T02:07:05.683Z,100383.31
2024-05-09T02:07:17.802Z,100379.81
2024-05-09T02:07:30.680Z,100379.75
2024-05-09T02:07:42.845Z,100388.38
2024-05-09T02:07:54.931Z,100378.84
2024-05-09T02:08:07.521Z,100384.84
2024-05-09T02:08:21.755Z,100381.34
2024-05-09T02:08:34.175Z,100386.53
2024-05-09T02:08:46.373Z,100386.53
2024-05-09T02:08:58.444Z,100381.34
2024-05-09T02:09:10.515Z,100378.75
2024-05-09T02:09:22.593Z,100382.28
2024-05-09T02:09:34.719Z,100384.88
2024-05-09T02:09:46.761Z,100385.81
2024-05-09T02:09:58.871Z,100388.41
2024-05-09T02:10:16.571Z,100384.16
2024-05-09T02:10:35.139Z,100382.41
2024-05-09T02:10:49.325Z,100378.97
2024-05-09T02:11:02.037Z,100383.31
2024-05-09T02:11:14.384Z,100379.88
2024-05-09T02:11:26.557Z,100385.97
2024-05-09T02:11:47.559Z,100384.25
2024-05-09T02:11:59.759Z,100381.69
2024-05-09T02:12:12.101Z,100380.81
2024-05-09T02:12:24.390Z,100380.81
2024-05-09T02:12:36.575Z,100377.34
2024-05-09T02:12:48.628Z,100378.22
2024-05-09T02:13:01.034Z,100384.25
2024-05-09T02:13:13.642Z,100383.41
2024-05-09T02:13:25.712Z,100381.66
2024-05-09T02:13:37.798Z,100382.50
2024-05-09T02:13:49.838Z,100379.06
2024-05-09T02:14:01.949Z,100378.16
2024-05-09T02:14:14.285Z,100378.16
2024-05-09T02:14:26.510Z,100376.38
2024-05-09T02:14:38.772Z,100385.91
2024-05-09T02:14:51.611Z,100385.06
2024-05-09T02:15:03.828Z,100385.00
2024-05-09T02:15:16.175Z,100385.91
2024-05-09T02:15:28.293Z,100381.66
2024-05-09T02:15:40.394Z,100384.19
2024-05-09T02:15:52.569Z,100379.88
2024-05-09T02:16:05.049Z,100383.34
2024-05-09T02:16:17.102Z,100380.75
2024-05-09T02:16:29.200Z,100377.34
2024-05-09T02:16:41.244Z,100380.00
2024-05-09T02:16:53.481Z,100381.69
2024-05-09T02:17:05.559Z,100388.66
2024-05-09T02:17:17.700Z,100378.25
2024-05-09T02:17:29.918Z,100386.88
2024-05-09T02:17:42.152Z,100376.50
2024-05-09T02:17:54.578Z,100386.91
2024-05-09T02:18:08.193Z,100390.38
2024-05-09T02:18:20.846Z,100381.69
2024-05-09T02:18:33.498Z,100380.00
2024-05-09T02:18:45.702Z,100381.75
2024-05-09T02:18:57.960Z,100385.22
2024-05-09T02:19:10.240Z,100383.53
2024-05-09T02:19:22.673Z,100380.09
2024-05-09T02:19:35.023Z,100385.22
2024-05-09T02:19:47.147Z,100386.94
2024-05-09T02:19:59.269Z,100385.19
2024-05-09T02:20:18.783Z,100381.78
2024-05-09T02:20:40.911Z,100390.41
2024-05-09T02:20:53.267Z,100388.66
2024-05-09T02:21:05.535Z,100388.66
2024-05-09T02:21:17.662Z,100386.94
2024-05-09T02:21:34.070Z,100382.59
2024-05-09T02:21:46.143Z,100380.84
2024-05-09T02:21:58.202Z,100389.50
2024-05-09T02:22:10.301Z,100383.53
2024-05-09T02:22:22.381Z,100381.88
2024-05-09T02:22:34.451Z,100385.34
2024-05-09T02:22:46.546Z,100386.19
2024-05-09T02:22:58.610Z,100381.88
2024-05-09T02:23:10.844Z,100380.09
2024-05-09T02:23:23.077Z,100376.69
2024-05-09T02:23:35.238Z,100379.31
2024-05-09T02:23:47.314Z,100374.94
2024-05-09T02:23:59.539Z,100380.03
2024-05-09T02:24:11.621Z,100380.03
2024-05-09T02:24:23.709Z,100380.03
2024-05-09T02:24:35.797Z,100374.84
2024-05-09T02:24:47.833Z,100383.53
2024-05-09T02:24:59.927Z,100379.16
2024-05-09T02:25:12.617Z,100380.84
2024-05-09T02:25:26.955Z,100381.75
2024-05-09T02:25:39.772Z,100386.03
2024-05-09T02:25:51.854Z,100381.69
2024-05-09T02:26:04.107Z,100380.84
2024-05-09T02:26:16.306Z,100385.22
2024-05-09T02:26:28.456Z,100380.03
2024-05-09T02:26:40.552Z,100375.72
2024-05-09T02:26:52.652Z,100378.34
2024-05-09T02:27:04.885Z,100380.13
2024-05-09T02:27:16.940Z,100376.69
2024-05-09T02:27:29.070Z,100374.09
2024-05-09T02:27:41.953Z,100379.31